Olmos, Texas
Current Conditions -  °F | °C
As of 2:15 PM on Wednesday 28 Jan 2015 (Local Time) from KBEA Reporting Station
Clear Clear  
Wind Chill: 79°   Ceiling: Unl
Heat Index: 79°   Visibility: 10mi
Dew Point: 43°   Wind: 8mph
Humidity: 28%   Direction: 180°S
Pressure: 30.13"   Gusts: NA
Location:  28.2201°N, 97.6762°W
Report Text: KBEA 282015Z AUTO 18007KT 10SM CLR 26/06 A3013 RMK AO2 T02600063
Loading
Personal Weather Stations






























Interactive Weather Map New forecast layout! Learn more

10-Day Weather Forecast

Advertisements
Track Severe Weather on mobile